San Francisco International Airport
KSFO : now visible

Airfield :











YOU CAN JOIN US ON...

 
LOGIN :

Register | Disclaimer

   EN    FR    IT 

 









Legend :    VFR   Marginal VFR   IFR   Intensive IFR   Very Intensive IFR
Visi :
Ceiling :
>= 8 km
>= 3000ft
5 to 8 km
1000 to 3000 ft
1500m to 5 km
500 to 1000 ft
800 to 1500m
200 to 500 ft
< 800m
< 200 ft
Symbols :   Thunderstorms  Fog  Heavy snow  Heavy precipitations  Wind > 20 kt







- Airport Elevation : 13 ft
- IATA code : SFO


KSFO - San Francisco International

CURRENT METAR :
  • 201056Z 29017G23KT 10SM FEW023 FEW028 BKN120 10/03 A3006 RMK AO2 PK WND 29028/1001 SLP178 T01000033

EXPIRED METARs :
  • 200956Z 30020G28KT 10SM FEW020 BKN023 BKN130 10/04 A3007 RMK AO2 PK WND 30030/0929 SLP181 T01000039
  • 200856Z 27017KT 10SM FEW022 BKN024 BKN140 10/04 A3008 RMK AO2 PK WND 28026/0816 SLP187 T01000039 56016
  • 200756Z 28019KT 10SM FEW022 BKN024 BKN140 10/04 A3009 RMK AO2 SLP189 T01000039 401330033

TAF KSFO
Valid from the 20 at 09:00 until the 21 at 12:00 UTC


200854Z 2009/2112 29015G25KT P6SM FEW025 BKN030 OVC150
FM201500 30020G30KT P6SM VCSH SCT025 BKN035 BKN120
FM202000 30024G32KT P6SM VCSH SCT030 BKN040
FM210000 30027G34KT P6SM SCT035 SCT050 SCT150
FM210500 30020G26KT P6SM SCT050
KZOA FIR / North America



MET'MAP, your aeronautical weather chart ! - Copyright ORBIFLY December 2007 - Disclaimer

ORBIFLY MET'MAP TEAM :

Programming & Development : Alexandra Zaïnal
Concept & Development : Baudouin d'Aumeries
Co-Development & Prog : Marc-Olivier Méhu
Technical & hardware support : Manuel Goepfert

Contact : metmap@orbifly.com




SOURCES & CREDITS :

   NOAA       Earth
Advisory